sensor_id;sensor_type;location;lat;lon;timestamp;pressure;altitude;pressure_sealevel;temperature;humidity
44979;BME280;67464;52.438;-1.904;2023-02-22T00:00:22;99662.21;;;6.23;100.00
44979;BME280;67464;52.438;-1.904;2023-02-22T00:02:45;99663.85;;;4.87;100.00
44979;BME280;67464;52.438;-1.904;2023-02-22T00:05:10;99653.76;;;5.33;100.00
44979;BME280;67464;52.438;-1.904;2023-02-22T00:07:36;99650.13;;;5.28;100.00
44979;BME280;67464;52.438;-1.904;2023-02-22T00:10:01;99653.78;;;5.05;100.00
44979;BME280;67464;52.438;-1.904;2023-02-22T00:12:27;99657.15;;;4.25;100.00
44979;BME280;67464;52.438;-1.904;2023-02-22T00:14:52;99657.74;;;5.13;100.00
44979;BME280;67464;52.438;-1.904;2023-02-22T00:17:17;99656.61;;;5.09;100.00
44979;BME280;67464;52.438;-1.904;2023-02-22T00:19:43;99653.68;;;4.86;100.00
44979;BME280;67464;52.438;-1.904;2023-02-22T00:22:08;99652.35;;;5.73;100.00
44979;BME280;67464;52.438;-1.904;2023-02-22T00:24:34;99662.05;;;4.23;100.00
44979;BME280;67464;52.438;-1.904;2023-02-22T00:27:00;99656.45;;;4.82;100.00
44979;BME280;67464;52.438;-1.904;2023-02-22T00:29:25;99656.11;;;4.66;100.00
44979;BME280;67464;52.438;-1.904;2023-02-22T00:31:51;99656.75;;;4.29;100.00
44979;BME280;67464;52.438;-1.904;2023-02-22T00:34:16;99652.74;;;4.53;100.00
44979;BME280;67464;52.438;-1.904;2023-02-22T00:36:46;99652.46;;;4.13;100.00
44979;BME280;67464;52.438;-1.904;2023-02-22T00:39:08;99655.50;;;4.32;100.00
44979;BME280;67464;52.438;-1.904;2023-02-22T00:41:33;99652.85;;;5.27;100.00
44979;BME280;67464;52.438;-1.904;2023-02-22T00:43:59;99650.40;;;5.85;100.00
44979;BME280;67464;52.438;-1.904;2023-02-22T00:46:25;99646.30;;;5.42;100.00
44979;BME280;67464;52.438;-1.904;2023-02-22T00:48:50;99647.74;;;4.51;100.00
44979;BME280;67464;52.438;-1.904;2023-02-22T00:51:16;99642.22;;;5.68;100.00
44979;BME280;67464;52.438;-1.904;2023-02-22T00:53:41;99646.48;;;4.84;100.00
44979;BME280;67464;52.438;-1.904;2023-02-22T00:56:07;99641.09;;;5.31;100.00
44979;BME280;67464;52.438;-1.904;2023-02-22T00:58:33;99641.98;;;4.89;100.00
44979;BME280;67464;52.438;-1.904;2023-02-22T01:00:58;99640.47;;;4.54;100.00
44979;BME280;67464;52.438;-1.904;2023-02-22T01:03:24;99639.38;;;3.46;100.00
44979;BME280;67464;52.438;-1.904;2023-02-22T01:05:49;99636.10;;;3.73;100.00
44979;BME280;67464;52.438;-1.904;2023-02-22T01:08:15;99633.82;;;3.60;100.00
44979;BME280;67464;52.438;-1.904;2023-02-22T01:10:40;99628.47;;;3.99;100.00
44979;BME280;67464;52.438;-1.904;2023-02-22T01:13:07;99630.42;;;4.08;100.00
44979;BME280;67464;52.438;-1.904;2023-02-22T01:15:31;99633.42;;;3.44;100.00
44979;BME280;67464;52.438;-1.904;2023-02-22T01:17:58;99628.23;;;3.81;100.00
44979;BME280;67464;52.438;-1.904;2023-02-22T01:20:22;99624.48;;;4.74;100.00
44979;BME280;67464;52.438;-1.904;2023-02-22T01:22:49;99625.04;;;4.03;100.00
44979;BME280;67464;52.438;-1.904;2023-02-22T01:25:16;99621.66;;;4.05;100.00
44979;BME280;67464;52.438;-1.904;2023-02-22T01:27:38;99615.86;;;4.59;100.00
44979;BME280;67464;52.438;-1.904;2023-02-22T01:30:05;99619.78;;;4.22;100.00
44979;BME280;67464;52.438;-1.904;2023-02-22T01:32:28;99612.24;;;4.84;100.00
44979;BME280;67464;52.438;-1.904;2023-02-22T01:34:54;99609.21;;;4.73;100.00
44979;BME280;67464;52.438;-1.904;2023-02-22T01:37:19;99605.59;;;4.93;100.00
44979;BME280;67464;52.438;-1.904;2023-02-22T01:39:45;99602.71;;;4.54;100.00
44979;BME280;67464;52.438;-1.904;2023-02-22T01:42:10;99601.25;;;5.47;100.00
44979;BME280;67464;52.438;-1.904;2023-02-22T01:44:37;99604.37;;;5.53;100.00
44979;BME280;67464;52.438;-1.904;2023-02-22T01:47:03;99601.22;;;4.94;100.00
44979;BME280;67464;52.438;-1.904;2023-02-22T01:49:36;99598.88;;;4.62;100.00
44979;BME280;67464;52.438;-1.904;2023-02-22T01:51:54;99600.36;;;5.44;100.00
44979;BME280;67464;52.438;-1.904;2023-02-22T01:54:22;99607.25;;;4.05;100.00
44979;BME280;67464;52.438;-1.904;2023-02-22T01:56:47;99605.93;;;3.91;100.00
44979;BME280;67464;52.438;-1.904;2023-02-22T01:59:10;99607.52;;;3.72;100.00
44979;BME280;67464;52.438;-1.904;2023-02-22T02:01:34;99604.57;;;4.41;100.00
44979;BME280;67464;52.438;-1.904;2023-02-22T02:04:04;99596.24;;;4.62;100.00
44979;BME280;67464;52.438;-1.904;2023-02-22T02:06:25;99598.09;;;4.70;100.00
44979;BME280;67464;52.438;-1.904;2023-02-22T02:08:56;99595.29;;;5.22;100.00
44979;BME280;67464;52.438;-1.904;2023-02-22T02:11:18;99594.69;;;5.12;100.00
44979;BME280;67464;52.438;-1.904;2023-02-22T02:13:42;99598.07;;;5.32;100.00
44979;BME280;67464;52.438;-1.904;2023-02-22T02:16:07;99599.92;;;5.59;100.00
44979;BME280;67464;52.438;-1.904;2023-02-22T02:18:32;99602.67;;;5.26;100.00
44979;BME280;67464;52.438;-1.904;2023-02-22T02:23:37;99601.37;;;5.39;100.00
44979;BME280;67464;52.438;-1.904;2023-02-22T02:26:02;99598.43;;;4.96;100.00
44979;BME280;67464;52.438;-1.904;2023-02-22T02:30:57;99600.56;;;3.75;100.00
44979;BME280;67464;52.438;-1.904;2023-02-22T02:33:10;99592.80;;;5.88;100.00
44979;BME280;67464;52.438;-1.904;2023-02-22T02:35:38;99591.61;;;5.90;100.00
44979;BME280;67464;52.438;-1.904;2023-02-22T02:38:00;99589.06;;;5.88;100.00
44979;BME280;67464;52.438;-1.904;2023-02-22T02:40:24;99585.36;;;5.94;100.00
44979;BME280;67464;52.438;-1.904;2023-02-22T02:42:51;99584.95;;;6.68;100.00
44979;BME280;67464;52.438;-1.904;2023-02-22T02:45:16;99582.07;;;6.37;100.00
44979;BME280;67464;52.438;-1.904;2023-02-22T02:47:41;99587.25;;;6.19;100.00
44979;BME280;67464;52.438;-1.904;2023-02-22T02:50:06;99581.19;;;5.87;100.00
44979;BME280;67464;52.438;-1.904;2023-02-22T02:52:28;99581.50;;;5.59;100.00
44979;BME280;67464;52.438;-1.904;2023-02-22T02:54:54;99576.31;;;6.08;100.00
44979;BME280;67464;52.438;-1.904;2023-02-22T02:57:18;99573.45;;;5.29;100.00
44979;BME280;67464;52.438;-1.904;2023-02-22T02:59:44;99570.90;;;5.94;100.00
44979;BME280;67464;52.438;-1.904;2023-02-22T03:02:18;99571.52;;;6.10;100.00
44979;BME280;67464;52.438;-1.904;2023-02-22T03:04:45;99565.85;;;6.59;100.00
44979;BME280;67464;52.438;-1.904;2023-02-22T03:07:08;99561.03;;;6.59;100.00
44979;BME280;67464;52.438;-1.904;2023-02-22T03:09:35;99555.59;;;7.09;100.00
44979;BME280;67464;52.438;-1.904;2023-02-22T03:11:57;99551.86;;;7.54;100.00
44979;BME280;67464;52.438;-1.904;2023-02-22T03:14:24;99554.03;;;7.69;100.00
44979;BME280;67464;52.438;-1.904;2023-02-22T03:16:46;99552.77;;;7.80;96.61
44979;BME280;67464;52.438;-1.904;2023-02-22T03:19:10;99546.28;;;6.68;100.00
44979;BME280;67464;52.438;-1.904;2023-02-22T03:21:40;99544.97;;;7.00;100.00
44979;BME280;67464;52.438;-1.904;2023-02-22T03:24:05;99546.40;;;6.30;100.00
44979;BME280;67464;52.438;-1.904;2023-02-22T03:26:28;99548.55;;;6.01;100.00
44979;BME280;67464;52.438;-1.904;2023-02-22T03:28:51;99542.72;;;6.10;100.00
44979;BME280;67464;52.438;-1.904;2023-02-22T03:31:18;99542.86;;;5.51;100.00
44979;BME280;67464;52.438;-1.904;2023-02-22T03:33:43;99538.33;;;6.30;100.00
44979;BME280;67464;52.438;-1.904;2023-02-22T03:36:12;99534.67;;;4.83;100.00
44979;BME280;67464;52.438;-1.904;2023-02-22T03:38:35;99531.04;;;6.42;100.00
44979;BME280;67464;52.438;-1.904;2023-02-22T03:41:00;99528.79;;;6.74;100.00
44979;BME280;67464;52.438;-1.904;2023-02-22T03:43:26;99529.40;;;6.79;100.00
44979;BME280;67464;52.438;-1.904;2023-02-22T03:45:49;99525.27;;;6.43;100.00
44979;BME280;67464;52.438;-1.904;2023-02-22T03:48:18;99529.23;;;5.98;100.00
44979;BME280;67464;52.438;-1.904;2023-02-22T03:50:39;99524.19;;;6.88;100.00
44979;BME280;67464;52.438;-1.904;2023-02-22T03:53:04;99525.99;;;5.51;100.00
44979;BME280;67464;52.438;-1.904;2023-02-22T03:55:30;99526.07;;;6.48;100.00
44979;BME280;67464;52.438;-1.904;2023-02-22T03:57:57;99522.49;;;6.38;100.00
44979;BME280;67464;52.438;-1.904;2023-02-22T04:00:22;99521.33;;;5.85;100.00
44979;BME280;67464;52.438;-1.904;2023-02-22T04:02:46;99514.58;;;6.48;100.00
44979;BME280;67464;52.438;-1.904;2023-02-22T04:05:10;99513.20;;;6.99;100.00
44979;BME280;67464;52.438;-1.904;2023-02-22T04:07:36;99506.65;;;6.56;100.00
44979;BME280;67464;52.438;-1.904;2023-02-22T04:10:02;99500.24;;;6.87;100.00
44979;BME280;67464;52.438;-1.904;2023-02-22T04:12:27;99508.61;;;5.38;100.00
44979;BME280;67464;52.438;-1.904;2023-02-22T04:14:52;99500.03;;;4.92;100.00
44979;BME280;67464;52.438;-1.904;2023-02-22T04:17:18;99498.88;;;5.96;100.00
44979;BME280;67464;52.438;-1.904;2023-02-22T04:19:44;99496.61;;;6.90;100.00
44979;BME280;67464;52.438;-1.904;2023-02-22T04:22:09;99495.06;;;6.36;100.00
44979;BME280;67464;52.438;-1.904;2023-02-22T04:24:34;99486.03;;;6.40;100.00
44979;BME280;67464;52.438;-1.904;2023-02-22T04:27:00;99488.95;;;4.96;100.00
44979;BME280;67464;52.438;-1.904;2023-02-22T04:29:25;99487.56;;;5.21;100.00
44979;BME280;67464;52.438;-1.904;2023-02-22T04:31:50;99484.62;;;5.46;100.00
44979;BME280;67464;52.438;-1.904;2023-02-22T04:34:15;99481.39;;;5.66;100.00
44979;BME280;67464;52.438;-1.904;2023-02-22T04:36:41;99479.62;;;6.38;100.00
44979;BME280;67464;52.438;-1.904;2023-02-22T04:39:06;99483.20;;;5.72;100.00
44979;BME280;67464;52.438;-1.904;2023-02-22T04:41:32;99479.50;;;6.34;100.00
44979;BME280;67464;52.438;-1.904;2023-02-22T04:43:57;99478.86;;;6.78;100.00
44979;BME280;67464;52.438;-1.904;2023-02-22T04:46:23;99479.08;;;4.87;100.00
44979;BME280;67464;52.438;-1.904;2023-02-22T04:48:49;99481.56;;;4.62;100.00
44979;BME280;67464;52.438;-1.904;2023-02-22T04:51:14;99483.73;;;4.75;100.00
44979;BME280;67464;52.438;-1.904;2023-02-22T04:53:40;99485.54;;;4.56;100.00
44979;BME280;67464;52.438;-1.904;2023-02-22T04:56:05;99488.26;;;5.48;100.00
44979;BME280;67464;52.438;-1.904;2023-02-22T04:58:30;99485.94;;;4.06;100.00
44979;BME280;67464;52.438;-1.904;2023-02-22T05:00:55;99481.85;;;4.73;100.00
44979;BME280;67464;52.438;-1.904;2023-02-22T05:03:21;99484.48;;;4.52;100.00
44979;BME280;67464;52.438;-1.904;2023-02-22T05:05:46;99481.65;;;4.66;100.00
44979;BME280;67464;52.438;-1.904;2023-02-22T05:08:11;99483.59;;;4.43;100.00
44979;BME280;67464;52.438;-1.904;2023-02-22T05:10:37;99480.83;;;5.87;100.00
44979;BME280;67464;52.438;-1.904;2023-02-22T05:13:02;99480.20;;;5.24;100.00
44979;BME280;67464;52.438;-1.904;2023-02-22T05:15:28;99482.57;;;5.14;100.00
44979;BME280;67464;52.438;-1.904;2023-02-22T05:17:53;99479.95;;;5.03;100.00
44979;BME280;67464;52.438;-1.904;2023-02-22T05:20:22;99479.83;;;5.45;100.00
44979;BME280;67464;52.438;-1.904;2023-02-22T05:22:44;99480.95;;;5.38;100.00
44979;BME280;67464;52.438;-1.904;2023-02-22T05:25:09;99478.50;;;4.91;100.00
44979;BME280;67464;52.438;-1.904;2023-02-22T05:27:35;99479.47;;;5.39;100.00
44979;BME280;67464;52.438;-1.904;2023-02-22T05:30:00;99476.08;;;4.27;100.00
44979;BME280;67464;52.438;-1.904;2023-02-22T05:32:26;99475.79;;;5.16;100.00
44979;BME280;67464;52.438;-1.904;2023-02-22T05:34:51;99468.76;;;4.44;100.00
44979;BME280;67464;52.438;-1.904;2023-02-22T05:37:16;99468.58;;;3.88;100.00
44979;BME280;67464;52.438;-1.904;2023-02-22T05:39:42;99467.23;;;4.69;100.00
44979;BME280;67464;52.438;-1.904;2023-02-22T05:42:07;99468.32;;;5.99;100.00
44979;BME280;67464;52.438;-1.904;2023-02-22T05:44:32;99468.38;;;4.93;100.00
44979;BME280;67464;52.438;-1.904;2023-02-22T05:46:57;99471.27;;;5.15;100.00
44979;BME280;67464;52.438;-1.904;2023-02-22T05:49:23;99473.42;;;5.49;100.00
44979;BME280;67464;52.438;-1.904;2023-02-22T05:51:49;99468.97;;;5.54;100.00
44979;BME280;67464;52.438;-1.904;2023-02-22T05:54:14;99471.59;;;4.54;100.00
44979;BME280;67464;52.438;-1.904;2023-02-22T05:56:39;99474.56;;;5.19;100.00
44979;BME280;67464;52.438;-1.904;2023-02-22T05:59:05;99470.61;;;3.84;100.00
44979;BME280;67464;52.438;-1.904;2023-02-22T06:01:30;99467.17;;;4.34;100.00
44979;BME280;67464;52.438;-1.904;2023-02-22T06:03:55;99466.33;;;4.07;100.00
44979;BME280;67464;52.438;-1.904;2023-02-22T06:06:21;99471.35;;;5.40;100.00
44979;BME280;67464;52.438;-1.904;2023-02-22T06:08:46;99469.42;;;4.80;100.00
44979;BME280;67464;52.438;-1.904;2023-02-22T06:11:11;99465.34;;;4.69;100.00
44979;BME280;67464;52.438;-1.904;2023-02-22T06:13:37;99457.49;;;4.74;100.00
44979;BME280;67464;52.438;-1.904;2023-02-22T06:16:01;99451.56;;;4.80;100.00
44979;BME280;67464;52.438;-1.904;2023-02-22T06:18:27;99452.21;;;3.94;100.00
44979;BME280;67464;52.438;-1.904;2023-02-22T06:20:52;99448.51;;;4.57;100.00
44979;BME280;67464;52.438;-1.904;2023-02-22T06:23:19;99449.78;;;5.39;100.00
44979;BME280;67464;52.438;-1.904;2023-02-22T06:25:44;99449.90;;;4.31;100.00
44979;BME280;67464;52.438;-1.904;2023-02-22T06:28:09;99452.26;;;5.09;100.00
44979;BME280;67464;52.438;-1.904;2023-02-22T06:30:35;99449.65;;;4.59;100.00
44979;BME280;67464;52.438;-1.904;2023-02-22T06:33:00;99449.93;;;5.17;100.00
44979;BME280;67464;52.438;-1.904;2023-02-22T06:35:26;99447.86;;;4.25;100.00
44979;BME280;67464;52.438;-1.904;2023-02-22T06:37:51;99446.64;;;4.42;100.00
44979;BME280;67464;52.438;-1.904;2023-02-22T06:40:16;99446.53;;;4.29;100.00
44979;BME280;67464;52.438;-1.904;2023-02-22T06:42:42;99443.49;;;3.99;100.00
44979;BME280;67464;52.438;-1.904;2023-02-22T06:45:08;99446.12;;;3.55;100.00
44979;BME280;67464;52.438;-1.904;2023-02-22T06:47:32;99447.39;;;3.55;100.00
44979;BME280;67464;52.438;-1.904;2023-02-22T06:49:58;99453.77;;;3.86;100.00
44979;BME280;67464;52.438;-1.904;2023-02-22T06:52:23;99451.33;;;3.48;100.00
44979;BME280;67464;52.438;-1.904;2023-02-22T06:54:49;99454.29;;;3.96;100.00
44979;BME280;67464;52.438;-1.904;2023-02-22T06:57:14;99457.96;;;4.09;100.00
44979;BME280;67464;52.438;-1.904;2023-02-22T06:59:39;99459.08;;;4.27;100.00
44979;BME280;67464;52.438;-1.904;2023-02-22T07:02:04;99461.84;;;4.47;100.00
44979;BME280;67464;52.438;-1.904;2023-02-22T07:04:30;99456.24;;;4.01;100.00
44979;BME280;67464;52.438;-1.904;2023-02-22T07:06:55;99461.13;;;3.89;100.00
44979;BME280;67464;52.438;-1.904;2023-02-22T07:09:20;99457.80;;;3.54;100.00
44979;BME280;67464;52.438;-1.904;2023-02-22T07:11:46;99455.34;;;5.04;100.00
44979;BME280;67464;52.438;-1.904;2023-02-22T07:14:11;99454.55;;;4.22;100.00
44979;BME280;67464;52.438;-1.904;2023-02-22T07:16:36;99454.55;;;5.06;100.00
44979;BME280;67464;52.438;-1.904;2023-02-22T07:19:01;99458.62;;;5.20;100.00
44979;BME280;67464;52.438;-1.904;2023-02-22T07:21:27;99460.46;;;4.04;100.00
44979;BME280;67464;52.438;-1.904;2023-02-22T07:23:54;99458.63;;;4.03;100.00
44979;BME280;67464;52.438;-1.904;2023-02-22T07:26:19;99462.55;;;4.65;100.00
44979;BME280;67464;52.438;-1.904;2023-02-22T07:28:43;99467.34;;;3.91;100.00
44979;BME280;67464;52.438;-1.904;2023-02-22T07:31:09;99467.20;;;4.49;100.00
44979;BME280;67464;52.438;-1.904;2023-02-22T07:33:34;99471.28;;;4.43;100.00
44979;BME280;67464;52.438;-1.904;2023-02-22T07:35:59;99470.26;;;4.92;100.00
44979;BME280;67464;52.438;-1.904;2023-02-22T07:38:25;99474.93;;;5.73;100.00
44979;BME280;67464;52.438;-1.904;2023-02-22T07:40:51;99474.72;;;4.70;100.00
44979;BME280;67464;52.438;-1.904;2023-02-22T07:43:18;99474.38;;;4.44;100.00
44979;BME280;67464;52.438;-1.904;2023-02-22T07:45:42;99478.32;;;5.43;100.00
44979;BME280;67464;52.438;-1.904;2023-02-22T07:48:07;99477.25;;;4.70;100.00
44979;BME280;67464;52.438;-1.904;2023-02-22T07:50:34;99479.72;;;4.50;100.00
44979;BME280;67464;52.438;-1.904;2023-02-22T07:53:02;99482.33;;;4.81;100.00
44979;BME280;67464;52.438;-1.904;2023-02-22T07:55:24;99486.19;;;4.69;100.00
44979;BME280;67464;52.438;-1.904;2023-02-22T07:57:50;99488.28;;;4.06;100.00
44979;BME280;67464;52.438;-1.904;2023-02-22T08:00:16;99494.45;;;4.02;100.00
44979;BME280;67464;52.438;-1.904;2023-02-22T08:02:39;99496.88;;;3.96;100.00
44979;BME280;67464;52.438;-1.904;2023-02-22T08:05:05;99495.75;;;4.40;100.00
44979;BME280;67464;52.438;-1.904;2023-02-22T08:07:30;99495.41;;;4.70;100.00
44979;BME280;67464;52.438;-1.904;2023-02-22T08:09:56;99496.92;;;4.32;100.00
44979;BME280;67464;52.438;-1.904;2023-02-22T08:12:21;99493.88;;;4.68;100.00
44979;BME280;67464;52.438;-1.904;2023-02-22T08:14:46;99495.90;;;5.01;100.00
44979;BME280;67464;52.438;-1.904;2023-02-22T08:17:12;99502.63;;;4.66;100.00
44979;BME280;67464;52.438;-1.904;2023-02-22T08:19:37;99506.87;;;5.72;100.00
44979;BME280;67464;52.438;-1.904;2023-02-22T08:22:02;99506.73;;;4.41;100.00
44979;BME280;67464;52.438;-1.904;2023-02-22T08:24:28;99508.28;;;3.51;100.00
44979;BME280;67464;52.438;-1.904;2023-02-22T08:26:54;99508.38;;;4.31;100.00
44979;BME280;67464;52.438;-1.904;2023-02-22T08:29:20;99503.20;;;4.57;100.00
44979;BME280;67464;52.438;-1.904;2023-02-22T08:31:49;99504.38;;;3.93;100.00
44979;BME280;67464;52.438;-1.904;2023-02-22T08:34:10;99506.17;;;4.88;100.00
44979;BME280;67464;52.438;-1.904;2023-02-22T08:36:40;99504.05;;;5.72;100.00
44979;BME280;67464;52.438;-1.904;2023-02-22T08:39:02;99507.35;;;5.46;100.00
44979;BME280;67464;52.438;-1.904;2023-02-22T08:41:27;99509.13;;;5.12;100.00
44979;BME280;67464;52.438;-1.904;2023-02-22T08:43:52;99508.19;;;5.01;100.00
44979;BME280;67464;52.438;-1.904;2023-02-22T08:46:18;99509.54;;;4.92;100.00
44979;BME280;67464;52.438;-1.904;2023-02-22T08:48:49;99507.79;;;6.14;100.00
44979;BME280;67464;52.438;-1.904;2023-02-22T08:51:09;99505.11;;;6.54;100.00
44979;BME280;67464;52.438;-1.904;2023-02-22T08:53:34;99505.34;;;6.81;100.00
44979;BME280;67464;52.438;-1.904;2023-02-22T08:55:59;99508.69;;;6.73;100.00
44979;BME280;67464;52.438;-1.904;2023-02-22T08:58:24;99508.74;;;7.72;100.00
44979;BME280;67464;52.438;-1.904;2023-02-22T09:00:50;99504.24;;;7.95;100.00
44979;BME280;67464;52.438;-1.904;2023-02-22T09:03:15;99508.68;;;7.50;100.00
44979;BME280;67464;52.438;-1.904;2023-02-22T09:05:42;99509.69;;;7.38;100.00
44979;BME280;67464;52.438;-1.904;2023-02-22T09:08:06;99511.57;;;7.68;100.00
44979;BME280;67464;52.438;-1.904;2023-02-22T09:10:33;99513.30;;;7.30;100.00
44979;BME280;67464;52.438;-1.904;2023-02-22T09:12:58;99515.74;;;7.80;100.00
44979;BME280;67464;52.438;-1.904;2023-02-22T09:15:24;99516.98;;;7.34;100.00
44979;BME280;67464;52.438;-1.904;2023-02-22T09:17:49;99516.52;;;7.13;100.00
44979;BME280;67464;52.438;-1.904;2023-02-22T09:20:16;99520.50;;;6.84;100.00
44979;BME280;67464;52.438;-1.904;2023-02-22T09:22:43;99527.13;;;5.92;100.00
44979;BME280;67464;52.438;-1.904;2023-02-22T09:25:06;99529.52;;;6.43;100.00
44979;BME280;67464;52.438;-1.904;2023-02-22T09:27:31;99526.49;;;7.15;100.00
44979;BME280;67464;52.438;-1.904;2023-02-22T09:29:57;99528.69;;;7.74;100.00
44979;BME280;67464;52.438;-1.904;2023-02-22T09:32:22;99529.82;;;7.27;100.00
44979;BME280;67464;52.438;-1.904;2023-02-22T09:34:48;99533.77;;;7.67;100.00
44979;BME280;67464;52.438;-1.904;2023-02-22T09:37:13;99533.41;;;7.38;100.00
44979;BME280;67464;52.438;-1.904;2023-02-22T09:39:39;99533.01;;;7.21;100.00
44979;BME280;67464;52.438;-1.904;2023-02-22T09:42:09;99537.39;;;6.76;100.00
44979;BME280;67464;52.438;-1.904;2023-02-22T09:44:35;99536.16;;;7.61;100.00
44979;BME280;67464;52.438;-1.904;2023-02-22T09:46:56;99541.88;;;6.73;100.00
44979;BME280;67464;52.438;-1.904;2023-02-22T09:49:26;99548.42;;;6.15;100.00
44979;BME280;67464;52.438;-1.904;2023-02-22T09:51:49;99550.58;;;6.35;100.00
44979;BME280;67464;52.438;-1.904;2023-02-22T09:54:19;99551.16;;;7.21;100.00
44979;BME280;67464;52.438;-1.904;2023-02-22T09:56:38;99555.11;;;7.29;100.00
44979;BME280;67464;52.438;-1.904;2023-02-22T09:59:05;99553.86;;;7.10;100.00
44979;BME280;67464;52.438;-1.904;2023-02-22T10:01:30;99558.53;;;7.09;100.00
44979;BME280;67464;52.438;-1.904;2023-02-22T10:04:00;99570.24;;;7.05;100.00
44979;BME280;67464;52.438;-1.904;2023-02-22T10:06:20;99577.93;;;6.73;100.00
44979;BME280;67464;52.438;-1.904;2023-02-22T10:08:44;99576.77;;;6.50;100.00
44979;BME280;67464;52.438;-1.904;2023-02-22T10:11:17;99579.74;;;6.15;100.00
44979;BME280;67464;52.438;-1.904;2023-02-22T10:13:43;99582.95;;;5.71;100.00
44979;BME280;67464;52.438;-1.904;2023-02-22T10:16:06;99586.64;;;6.09;100.00
44979;BME280;67464;52.438;-1.904;2023-02-22T10:18:42;99589.24;;;6.38;100.00
44979;BME280;67464;52.438;-1.904;2023-02-22T10:20:56;99592.85;;;6.64;100.00
44979;BME280;67464;52.438;-1.904;2023-02-22T10:23:26;99593.44;;;6.86;100.00
44979;BME280;67464;52.438;-1.904;2023-02-22T10:25:50;99591.89;;;6.83;100.00
44979;BME280;67464;52.438;-1.904;2023-02-22T10:28:17;99590.43;;;7.58;100.00
44979;BME280;67464;52.438;-1.904;2023-02-22T10:30:40;99591.64;;;7.96;100.00
44979;BME280;67464;52.438;-1.904;2023-02-22T10:33:08;99587.88;;;8.63;92.67
44979;BME280;67464;52.438;-1.904;2023-02-22T10:35:32;99596.98;;;8.23;93.31
44979;BME280;67464;52.438;-1.904;2023-02-22T10:37:57;99598.43;;;8.95;97.02
44979;BME280;67464;52.438;-1.904;2023-02-22T10:40:21;99599.11;;;9.56;81.88
44979;BME280;67464;52.438;-1.904;2023-02-22T10:42:45;99597.28;;;9.89;78.27
44979;BME280;67464;52.438;-1.904;2023-02-22T10:45:24;99598.65;;;8.55;86.56
44979;BME280;67464;52.438;-1.904;2023-02-22T10:47:37;99602.34;;;8.43;83.28
44979;BME280;67464;52.438;-1.904;2023-02-22T10:50:11;99603.11;;;9.48;78.87
44979;BME280;67464;52.438;-1.904;2023-02-22T10:52:31;99601.35;;;9.30;82.07
44979;BME280;67464;52.438;-1.904;2023-02-22T10:54:56;99600.96;;;9.22;78.35
44979;BME280;67464;52.438;-1.904;2023-02-22T10:57:20;99599.52;;;10.78;70.22
44979;BME280;67464;52.438;-1.904;2023-02-22T10:59:45;99602.75;;;10.65;69.71
44979;BME280;67464;52.438;-1.904;2023-02-22T11:02:17;99607.08;;;10.76;70.83
44979;BME280;67464;52.438;-1.904;2023-02-22T11:04:47;99603.25;;;10.14;68.23
44979;BME280;67464;52.438;-1.904;2023-02-22T11:07:08;99608.90;;;10.10;73.57
44979;BME280;67464;52.438;-1.904;2023-02-22T11:09:28;99606.77;;;8.77;77.12
44979;BME280;67464;52.438;-1.904;2023-02-22T11:12:06;99613.37;;;8.99;84.00
44979;BME280;67464;52.438;-1.904;2023-02-22T11:14:26;99614.11;;;9.31;80.86
44979;BME280;67464;52.438;-1.904;2023-02-22T11:16:49;99622.03;;;8.40;88.83
44979;BME280;67464;52.438;-1.904;2023-02-22T11:19:18;99621.71;;;8.34;93.99
44979;BME280;67464;52.438;-1.904;2023-02-22T11:21:35;99626.83;;;8.18;100.00
44979;BME280;67464;52.438;-1.904;2023-02-22T11:24:01;99630.44;;;8.25;100.00
44979;BME280;67464;52.438;-1.904;2023-02-22T11:26:26;99636.68;;;8.86;99.77
44979;BME280;67464;52.438;-1.904;2023-02-22T11:28:52;99625.17;;;7.09;100.00
44979;BME280;67464;52.438;-1.904;2023-02-22T11:31:20;99635.98;;;6.42;100.00
44979;BME280;67464;52.438;-1.904;2023-02-22T11:33:52;99637.71;;;7.17;100.00
44979;BME280;67464;52.438;-1.904;2023-02-22T11:36:09;99633.48;;;7.50;98.70
44979;BME280;67464;52.438;-1.904;2023-02-22T11:38:35;99637.31;;;8.53;93.56
44979;BME280;67464;52.438;-1.904;2023-02-22T11:41:11;99639.45;;;8.45;91.24
44979;BME280;67464;52.438;-1.904;2023-02-22T11:43:26;99641.09;;;8.65;88.68
44979;BME280;67464;52.438;-1.904;2023-02-22T11:45:57;99640.52;;;8.51;86.84
44979;BME280;67464;52.438;-1.904;2023-02-22T11:48:19;99642.14;;;8.51;86.24
44979;BME280;67464;52.438;-1.904;2023-02-22T11:50:53;99640.55;;;8.78;87.91
44979;BME280;67464;52.438;-1.904;2023-02-22T11:53:24;99633.94;;;9.62;78.39
44979;BME280;67464;52.438;-1.904;2023-02-22T11:55:38;99640.39;;;8.65;80.25
44979;BME280;67464;52.438;-1.904;2023-02-22T11:58:20;99641.98;;;8.36;82.77
44979;BME280;67464;52.438;-1.904;2023-02-22T12:00:32;99640.23;;;8.07;84.36
44979;BME280;67464;52.438;-1.904;2023-02-22T12:03:11;99646.08;;;8.52;86.82
44979;BME280;67464;52.438;-1.904;2023-02-22T12:05:25;99643.33;;;8.76;85.95
44979;BME280;67464;52.438;-1.904;2023-02-22T12:07:50;99641.13;;;9.42;78.92
44979;BME280;67464;52.438;-1.904;2023-02-22T12:10:18;99632.66;;;11.15;64.34
44979;BME280;67464;52.438;-1.904;2023-02-22T12:12:41;99637.71;;;10.73;62.00
44979;BME280;67464;52.438;-1.904;2023-02-22T12:15:04;99638.15;;;11.74;60.88
44979;BME280;67464;52.438;-1.904;2023-02-22T12:17:34;99641.10;;;11.11;60.58
44979;BME280;67464;52.438;-1.904;2023-02-22T12:19:54;99648.37;;;10.85;63.31
44979;BME280;67464;52.438;-1.904;2023-02-22T12:22:20;99642.86;;;11.18;60.12
44979;BME280;67464;52.438;-1.904;2023-02-22T12:24:45;99640.58;;;11.01;60.35
44979;BME280;67464;52.438;-1.904;2023-02-22T12:27:10;99642.19;;;11.17;62.32
44979;BME280;67464;52.438;-1.904;2023-02-22T12:29:37;99642.53;;;10.98;62.55
44979;BME280;67464;52.438;-1.904;2023-02-22T12:32:03;99638.55;;;10.56;64.24
44979;BME280;67464;52.438;-1.904;2023-02-22T12:34:29;99640.85;;;10.80;68.19
44979;BME280;67464;52.438;-1.904;2023-02-22T12:36:54;99640.05;;;10.28;65.70
44979;BME280;67464;52.438;-1.904;2023-02-22T12:39:23;99639.98;;;11.07;64.12
44979;BME280;67464;52.438;-1.904;2023-02-22T12:41:44;99637.27;;;12.48;56.18
44979;BME280;67464;52.438;-1.904;2023-02-22T12:44:13;99635.03;;;11.87;58.33